createdAt,value
2019-04-29T00:02:26.613Z,12.47
2019-04-29T00:04:56.871Z,12.80
2019-04-29T00:07:27.385Z,12.07
2019-04-29T00:09:57.759Z,12.17
2019-04-29T00:12:29.498Z,15.25
2019-04-29T00:15:24.627Z,10.83
2019-04-29T00:18:02.705Z,16.13
2019-04-29T00:20:38.357Z,16.35
2019-04-29T00:23:08.803Z,11.80
2019-04-29T00:25:38.498Z,12.77
2019-04-29T00:28:08.765Z,9.63
2019-04-29T00:30:38.586Z,17.50
2019-04-29T00:33:08.848Z,10.17
2019-04-29T00:35:39.315Z,14.83
2019-04-29T00:38:46.771Z,10.37
2019-04-29T00:41:54.511Z,11.00
2019-04-29T00:44:24.329Z,14.27
2019-04-29T00:46:53.933Z,15.47
2019-04-29T00:49:24.194Z,15.20
2019-04-29T00:51:53.854Z,16.57
2019-04-29T00:54:33.052Z,20.13
2019-04-29T00:57:03.597Z,13.50
2019-04-29T00:59:33.283Z,14.73
2019-04-29T01:02:03.671Z,15.13
2019-04-29T01:04:33.398Z,13.07
2019-04-29T01:07:03.731Z,11.53
2019-04-29T01:09:33.516Z,14.23
2019-04-29T01:12:03.820Z,12.83
2019-04-29T01:14:34.186Z,15.20
2019-04-29T01:17:03.937Z,16.53
2019-04-29T01:19:34.221Z,14.70
2019-04-29T01:22:04.599Z,15.13
2019-04-29T01:24:34.979Z,12.50
2019-04-29T01:27:20.215Z,13.97
2019-04-29T01:29:50.583Z,17.17
2019-04-29T01:32:21.665Z,16.53
2019-04-29T01:34:55.316Z,12.93
2019-04-29T01:37:40.134Z,12.70
2019-04-29T01:40:29.813Z,17.63
2019-04-29T01:43:00.244Z,14.67
2019-04-29T01:45:30.627Z,12.90
2019-04-29T01:48:00.975Z,11.53
2019-04-29T01:50:31.292Z,13.53
2019-04-29T01:53:01.652Z,14.90
2019-04-29T01:55:32.023Z,15.37
2019-04-29T01:58:02.406Z,17.77
2019-04-29T02:00:32.094Z,17.27
2019-04-29T02:03:02.393Z,17.97
2019-04-29T02:05:32.761Z,11.43
2019-04-29T02:08:03.125Z,15.07
2019-04-29T02:10:34.058Z,16.07
2019-04-29T02:13:04.430Z,17.83
2019-04-29T02:15:34.091Z,18.30
2019-04-29T02:18:04.422Z,17.33
2019-04-29T02:20:34.140Z,17.93
2019-04-29T02:23:21.446Z,17.23
2019-04-29T02:25:51.837Z,13.00
2019-04-29T02:28:21.535Z,14.63
2019-04-29T02:30:51.441Z,18.77
2019-04-29T02:33:21.705Z,18.30
2019-04-29T02:35:51.401Z,16.20
2019-04-29T02:38:32.140Z,16.63
2019-04-29T02:41:08.652Z,16.50
2019-04-29T02:43:40.453Z,20.17
2019-04-29T02:46:10.834Z,16.60
2019-04-29T02:48:41.176Z,16.87
2019-04-29T02:51:13.451Z,17.10
2019-04-29T02:53:43.798Z,15.33
2019-04-29T02:56:13.595Z,19.33
2019-04-29T02:58:53.958Z,15.93
2019-04-29T03:01:44.356Z,18.63
2019-04-29T03:04:16.802Z,17.27
2019-04-29T03:06:47.231Z,23.33
2019-04-29T03:09:17.572Z,19.57
2019-04-29T03:11:47.946Z,16.67
2019-04-29T03:14:18.285Z,15.00
2019-04-29T03:16:49.266Z,20.73
2019-04-29T03:19:25.167Z,19.07
2019-04-29T03:21:56.940Z,20.97
2019-04-29T03:24:27.238Z,21.80
2019-04-29T03:26:57.630Z,22.33
2019-04-29T03:29:28.098Z,19.57
2019-04-29T03:31:58.992Z,19.20
2019-04-29T03:34:29.638Z,20.10
2019-04-29T03:36:59.981Z,19.20
2019-04-29T03:39:30.420Z,18.60
2019-04-29T03:42:00.824Z,21.83
2019-04-29T03:44:31.186Z,21.20
2019-04-29T03:47:01.561Z,17.80
2019-04-29T03:49:31.923Z,21.47
2019-04-29T03:52:01.747Z,22.17
2019-04-29T03:54:31.946Z,20.20
2019-04-29T03:57:02.306Z,26.87
2019-04-29T03:59:32.651Z,24.33
2019-04-29T04:02:08.872Z,20.00
2019-04-29T04:05:08.138Z,23.13
2019-04-29T04:07:44.143Z,21.40
2019-04-29T04:10:13.949Z,18.10
2019-04-29T04:12:44.219Z,21.47
2019-04-29T04:15:13.929Z,20.13
2019-04-29T04:18:03.138Z,20.37
2019-04-29T04:20:33.553Z,21.33
2019-04-29T04:23:03.911Z,29.40
2019-04-29T04:25:33.642Z,25.08
2019-04-29T04:28:03.900Z,27.13
2019-04-29T04:30:33.574Z,22.97
2019-04-29T04:33:03.878Z,19.47
2019-04-29T04:35:33.578Z,18.40
2019-04-29T04:38:03.942Z,23.67
2019-04-29T04:40:38.119Z,26.77
2019-04-29T04:43:08.388Z,21.57
2019-04-29T04:45:38.727Z,23.62
2019-04-29T04:48:09.121Z,21.77
2019-04-29T04:50:39.443Z,21.83
2019-04-29T04:53:09.832Z,23.07
2019-04-29T04:55:41.778Z,23.07
2019-04-29T04:58:12.166Z,21.43
2019-04-29T05:00:42.641Z,24.93
2019-04-29T05:03:13.051Z,23.07
2019-04-29T05:05:43.415Z,23.60
2019-04-29T05:08:13.785Z,25.30
2019-04-29T05:10:44.167Z,26.73
2019-04-29T05:13:27.258Z,24.97
2019-04-29T05:15:45.881Z,24.57
2019-04-29T05:18:16.157Z,31.33
2019-04-29T05:20:46.488Z,29.10
2019-04-29T05:23:16.867Z,30.20
2019-04-29T05:25:47.215Z,31.50
2019-04-29T05:28:17.579Z,28.63
2019-04-29T05:30:47.952Z,27.73
2019-04-29T05:33:18.329Z,26.23
2019-04-29T05:36:07.583Z,24.07
2019-04-29T05:38:50.647Z,29.10
2019-04-29T05:41:21.905Z,25.43
2019-04-29T05:44:13.425Z,24.80
2019-04-29T05:46:50.250Z,24.60
2019-04-29T05:49:25.347Z,23.07
2019-04-29T05:52:20.964Z,22.57
2019-04-29T05:54:51.238Z,23.47
2019-04-29T05:57:25.422Z,22.27
2019-04-29T05:59:53.545Z,26.90
2019-04-29T06:02:33.168Z,24.30
2019-04-29T06:04:55.913Z,23.43
2019-04-29T06:07:26.967Z,28.40
2019-04-29T06:09:57.823Z,24.20
2019-04-29T06:12:28.214Z,22.07
2019-04-29T06:14:58.559Z,21.40
2019-04-29T06:17:28.942Z,23.27
2019-04-29T06:19:59.244Z,21.23
2019-04-29T06:22:29.668Z,18.48
2019-04-29T06:25:00.049Z,23.73
2019-04-29T06:27:33.269Z,17.23
2019-04-29T06:30:03.113Z,20.63
2019-04-29T06:32:34.406Z,17.13
2019-04-29T06:35:04.987Z,17.33
2019-04-29T06:37:34.703Z,17.70
2019-04-29T06:40:05.399Z,19.33
2019-04-29T06:42:35.081Z,18.17
2019-04-29T06:45:05.685Z,19.07
2019-04-29T06:47:35.371Z,21.53
2019-04-29T06:50:06.351Z,20.37
2019-04-29T06:52:36.702Z,17.17
2019-04-29T06:55:06.501Z,18.30
2019-04-29T06:57:36.825Z,19.97
2019-04-29T07:00:06.565Z,17.87
2019-04-29T07:02:36.969Z,18.47
2019-04-29T07:05:08.203Z,19.07
2019-04-29T07:07:38.588Z,18.63
2019-04-29T07:10:09.854Z,18.07
2019-04-29T07:12:42.755Z,16.77
2019-04-29T07:15:13.862Z,14.33
2019-04-29T07:17:43.635Z,12.77
2019-04-29T07:20:14.092Z,19.00
2019-04-29T07:22:43.775Z,14.00
2019-04-29T07:25:14.194Z,15.40
2019-04-29T07:27:44.577Z,15.43
2019-04-29T07:30:14.950Z,16.57
2019-04-29T07:32:47.161Z,16.83
2019-04-29T07:35:17.843Z,17.60
2019-04-29T07:37:48.183Z,13.43
2019-04-29T07:40:18.980Z,14.43
2019-04-29T07:42:49.347Z,15.33
2019-04-29T07:45:44.133Z,15.13
2019-04-29T07:48:06.439Z,17.67
2019-04-29T07:50:37.866Z,16.63
2019-04-29T07:53:07.528Z,14.07
2019-04-29T07:55:37.846Z,15.20
2019-04-29T07:58:08.225Z,13.83
2019-04-29T08:00:37.927Z,12.57
2019-04-29T08:03:08.037Z,10.73
2019-04-29T08:05:38.340Z,14.13
2019-04-29T08:08:08.814Z,17.77
2019-04-29T08:10:52.510Z,12.60
2019-04-29T08:13:11.560Z,10.83
2019-04-29T08:15:43.559Z,14.33
2019-04-29T08:18:16.322Z,8.27
2019-04-29T08:20:45.302Z,6.27
2019-04-29T08:23:14.967Z,7.43
2019-04-29T08:25:45.263Z,9.93
2019-04-29T08:28:15.766Z,8.83
2019-04-29T08:30:47.303Z,9.37
2019-04-29T08:33:17.828Z,12.30
2019-04-29T08:35:48.208Z,7.43
2019-04-29T08:38:19.478Z,11.43
2019-04-29T08:40:49.912Z,9.20
2019-04-29T08:43:42.875Z,9.73
2019-04-29T08:46:16.857Z,8.70
2019-04-29T08:48:47.176Z,5.40
2019-04-29T08:51:16.919Z,11.80
2019-04-29T08:53:46.524Z,5.70
2019-04-29T08:56:16.214Z,6.43
2019-04-29T08:58:49.269Z,8.13
2019-04-29T09:01:19.703Z,5.90
2019-04-29T09:03:53.819Z,8.23
2019-04-29T09:06:21.425Z,7.97
2019-04-29T09:08:55.201Z,6.07
2019-04-29T09:11:23.795Z,6.27
2019-04-29T09:13:54.164Z,8.50
2019-04-29T09:16:23.882Z,10.10
2019-04-29T09:18:54.271Z,6.17
2019-04-29T09:21:23.997Z,6.07
2019-04-29T09:23:54.424Z,4.90
2019-04-29T09:26:35.653Z,6.30
2019-04-29T09:29:23.317Z,5.50
2019-04-29T09:32:07.980Z,5.03
2019-04-29T09:34:37.741Z,6.27
2019-04-29T09:37:08.014Z,9.23
2019-04-29T09:39:43.232Z,7.13
2019-04-29T09:42:51.929Z,7.10
2019-04-29T09:45:31.723Z,5.70
2019-04-29T09:51:17.344Z,4.30
2019-04-29T09:53:42.597Z,5.97
2019-04-29T09:56:23.703Z,6.33
2019-04-29T09:59:13.928Z,5.43
2019-04-29T10:01:55.067Z,7.90
2019-04-29T10:04:36.072Z,4.62
2019-04-29T10:07:06.917Z,5.90
2019-04-29T10:09:56.185Z,5.12
2019-04-29T10:12:15.075Z,6.70
2019-04-29T10:14:45.426Z,5.73
2019-04-29T10:17:33.200Z,5.30
2019-04-29T10:20:32.162Z,4.60
2019-04-29T10:23:02.549Z,2.30
2019-04-29T10:25:32.127Z,3.17
2019-04-29T10:28:01.793Z,15.60
2019-04-29T10:30:32.745Z,3.30
2019-04-29T10:33:04.511Z,2.33
2019-04-29T10:35:34.848Z,3.03
2019-04-29T10:38:05.941Z,2.98
2019-04-29T10:40:46.795Z,2.50
2019-04-29T10:43:39.260Z,3.10
2019-04-29T10:46:29.963Z,3.93
2019-04-29T10:49:10.325Z,3.53
2019-04-29T10:51:40.074Z,3.30
2019-04-29T10:54:14.141Z,2.13
2019-04-29T10:56:47.491Z,5.07
2019-04-29T10:59:17.863Z,6.23
2019-04-29T11:02:35.520Z,2.80
2019-04-29T11:05:29.514Z,3.33
2019-04-29T11:08:22.408Z,3.03
2019-04-29T11:11:02.202Z,3.07
2019-04-29T11:13:25.968Z,3.00
2019-04-29T11:15:56.386Z,2.63
2019-04-29T11:18:26.938Z,3.50
2019-04-29T11:20:56.646Z,7.07
2019-04-29T11:23:42.106Z,2.10
2019-04-29T11:26:32.397Z,2.53
2019-04-29T11:29:05.539Z,3.30
2019-04-29T11:31:38.245Z,4.00
2019-04-29T11:34:20.717Z,4.50
2019-04-29T11:36:50.231Z,5.27
2019-04-29T11:39:20.906Z,5.43
2019-04-29T11:41:54.618Z,6.43
2019-04-29T11:44:26.474Z,3.43
2019-04-29T11:46:55.289Z,3.77
2019-04-29T11:49:36.627Z,5.22
2019-04-29T11:52:09.741Z,5.03
2019-04-29T11:54:57.325Z,6.05
2019-04-29T11:57:51.218Z,4.53
2019-04-29T12:00:40.442Z,3.40
2019-04-29T12:03:14.501Z,4.00
2019-04-29T12:05:55.338Z,4.87
2019-04-29T12:08:25.714Z,4.77
2019-04-29T12:11:06.778Z,4.77
2019-04-29T12:13:45.683Z,2.97
2019-04-29T12:16:26.561Z,4.90
2019-04-29T12:19:01.879Z,3.00
2019-04-29T12:21:36.646Z,5.57
2019-04-29T12:24:08.093Z,9.13
2019-04-29T12:26:43.176Z,4.10
2019-04-29T12:29:13.789Z,2.37
2019-04-29T12:32:08.870Z,4.10
2019-04-29T12:35:16.701Z,3.40
2019-04-29T12:38:05.965Z,5.37
2019-04-29T12:41:20.466Z,4.37
2019-04-29T12:43:54.129Z,3.77
2019-04-29T12:46:29.498Z,4.93
2019-04-29T12:49:03.669Z,2.93
2019-04-29T12:51:31.135Z,4.45
2019-04-29T12:54:01.396Z,6.67
2019-04-29T12:56:36.136Z,3.33
2019-04-29T12:59:06.763Z,8.27
2019-04-29T13:01:58.538Z,3.53
2019-04-29T13:04:49.931Z,3.33
2019-04-29T13:07:35.459Z,3.40
2019-04-29T13:10:20.876Z,3.50
2019-04-29T13:12:50.584Z,2.80
2019-04-29T13:15:33.281Z,5.00
2019-04-29T13:18:12.806Z,3.03
2019-04-29T13:20:41.521Z,5.23
2019-04-29T13:23:17.326Z,2.80
2019-04-29T13:25:42.607Z,4.33
2019-04-29T13:28:12.317Z,3.40
2019-04-29T13:30:43.390Z,2.33
2019-04-29T13:33:16.616Z,3.13
2019-04-29T13:35:49.565Z,2.97
2019-04-29T13:38:18.381Z,1.87
2019-04-29T13:40:48.053Z,3.00
2019-04-29T13:43:20.756Z,2.50
2019-04-29T13:46:12.104Z,2.57
2019-04-29T13:49:12.249Z,3.27
2019-04-29T13:51:36.323Z,3.03
2019-04-29T13:54:06.562Z,2.47
2019-04-29T13:56:54.824Z,1.87
2019-04-29T13:59:12.557Z,3.93
2019-04-29T14:02:01.227Z,4.03
2019-04-29T14:04:30.211Z,3.20
2019-04-29T14:07:00.607Z,2.87
2019-04-29T14:09:30.938Z,2.87
2019-04-29T14:12:15.319Z,3.13
2019-04-29T14:14:33.311Z,1.40
2019-04-29T14:17:24.271Z,15.33
2019-04-29T14:19:40.906Z,3.90
2019-04-29T14:22:06.476Z,4.40
2019-04-29T14:24:36.755Z,2.77
2019-04-29T14:27:07.164Z,2.33
2019-04-29T14:29:37.497Z,3.05
2019-04-29T14:32:07.321Z,2.23
2019-04-29T14:35:02.605Z,4.65
2019-04-29T14:37:32.991Z,2.67
2019-04-29T14:40:07.135Z,2.30
2019-04-29T14:42:57.041Z,3.20
2019-04-29T14:45:33.903Z,2.30
2019-04-29T14:48:14.402Z,4.97
2019-04-29T14:50:44.205Z,3.73
2019-04-29T14:53:13.786Z,3.17
2019-04-29T14:55:44.104Z,4.40
2019-04-29T14:58:13.804Z,3.30
2019-04-29T15:01:01.933Z,3.23
2019-04-29T15:03:34.240Z,3.33
2019-04-29T15:06:04.649Z,3.47
2019-04-29T15:08:36.183Z,2.73
2019-04-29T15:11:08.982Z,2.60
2019-04-29T15:13:37.769Z,3.43
2019-04-29T15:16:16.029Z,2.13
2019-04-29T15:19:13.202Z,3.60
2019-04-29T15:21:49.433Z,3.10
2019-04-29T15:24:20.315Z,2.23
2019-04-29T15:26:50.691Z,3.73
2019-04-29T15:29:21.084Z,3.37
2019-04-29T15:31:51.465Z,2.67
2019-04-29T15:34:21.150Z,2.63
2019-04-29T15:36:50.774Z,1.60
2019-04-29T15:39:24.560Z,3.33
2019-04-29T15:41:54.445Z,3.60
2019-04-29T15:44:24.269Z,2.90
2019-04-29T15:46:54.670Z,5.10
2019-04-29T15:49:26.515Z,3.87
2019-04-29T15:51:56.362Z,4.53
2019-04-29T15:54:26.607Z,3.70
2019-04-29T15:56:57.026Z,4.57
2019-04-29T15:59:27.549Z,4.27
2019-04-29T16:01:59.073Z,4.23
2019-04-29T16:04:34.326Z,6.90
2019-04-29T16:07:39.014Z,4.27
2019-04-29T16:10:27.327Z,4.93
2019-04-29T16:12:59.805Z,3.17
2019-04-29T16:15:30.123Z,4.10
2019-04-29T16:18:05.136Z,5.43
2019-04-29T16:20:32.554Z,11.57
2019-04-29T16:23:02.277Z,4.53
2019-04-29T16:25:31.875Z,5.40
2019-04-29T16:28:02.126Z,5.97
2019-04-29T16:30:34.781Z,5.90
2019-04-29T16:33:12.968Z,5.67
2019-04-29T16:35:36.472Z,5.30
2019-04-29T16:38:11.446Z,3.70
2019-04-29T16:40:44.447Z,4.37
2019-04-29T16:43:32.407Z,5.30
2019-04-29T16:46:10.635Z,4.77
2019-04-29T16:48:40.379Z,8.63
2019-04-29T16:51:14.600Z,6.83
2019-04-29T16:53:41.208Z,5.83
2019-04-29T16:58:43.460Z,4.07
2019-04-29T17:01:13.266Z,4.80
2019-04-29T17:03:42.866Z,4.23
2019-04-29T17:06:13.256Z,5.07
2019-04-29T17:09:05.226Z,5.20
2019-04-29T17:11:35.387Z,6.67
2019-04-29T17:14:10.177Z,4.20
2019-04-29T17:16:36.308Z,5.77
2019-04-29T17:19:06.566Z,5.03
2019-04-29T17:21:36.231Z,6.27
2019-04-29T17:24:06.511Z,8.17
2019-04-29T17:26:50.317Z,4.43
2019-04-29T17:29:49.453Z,4.23
2019-04-29T17:32:44.374Z,4.97
2019-04-29T17:35:10.190Z,5.67
2019-04-29T17:35:14.555Z,4.53
2019-04-29T17:37:40.908Z,6.43
2019-04-29T17:40:13.201Z,6.07
2019-04-29T17:42:44.612Z,6.70
2019-04-29T17:45:27.249Z,6.07
2019-04-29T17:47:55.883Z,5.80
2019-04-29T17:50:32.746Z,5.57
2019-04-29T17:53:04.669Z,6.13
2019-04-29T17:55:45.000Z,6.45
2019-04-29T17:58:19.763Z,7.07
2019-04-29T18:01:15.519Z,6.17
2019-04-29T18:04:07.221Z,5.07
2019-04-29T18:06:45.565Z,5.17
2019-04-29T18:09:28.269Z,4.90
2019-04-29T18:12:00.849Z,5.73
2019-04-29T18:14:38.007Z,5.30
2019-04-29T18:17:05.048Z,5.33
2019-04-29T18:19:55.397Z,6.63
2019-04-29T18:22:50.274Z,5.53
2019-04-29T18:25:36.804Z,9.97
2019-04-29T18:28:07.225Z,6.17
2019-04-29T18:30:38.435Z,7.13
2019-04-29T18:33:08.955Z,6.33
2019-04-29T18:35:39.405Z,9.17
2019-04-29T18:38:12.056Z,11.80
2019-04-29T18:40:42.381Z,10.65
2019-04-29T18:43:12.394Z,11.70
2019-04-29T18:45:55.213Z,11.33
2019-04-29T18:48:18.948Z,14.53
2019-04-29T18:50:47.668Z,13.20
2019-04-29T18:53:18.137Z,12.10
2019-04-29T18:55:48.544Z,17.00
2019-04-29T18:58:18.996Z,14.43
2019-04-29T19:00:52.330Z,12.43
2019-04-29T19:03:29.665Z,15.90
2019-04-29T19:06:03.265Z,11.70
2019-04-29T19:08:31.916Z,12.83
2019-04-29T19:11:02.364Z,11.47
2019-04-29T19:13:32.111Z,12.50
2019-04-29T19:16:09.511Z,12.33
2019-04-29T19:18:34.455Z,17.65
2019-04-29T19:21:04.142Z,11.23
2019-04-29T19:23:35.920Z,14.53
2019-04-29T19:26:06.543Z,10.60
2019-04-29T19:28:37.083Z,15.63
2019-04-29T19:31:09.508Z,12.80
2019-04-29T19:33:39.465Z,10.90
2019-04-29T19:36:17.401Z,13.53
2019-04-29T19:38:43.331Z,14.60
2019-04-29T19:41:16.296Z,10.27
2019-04-29T19:43:48.362Z,13.27
2019-04-29T19:46:24.298Z,11.97
2019-04-29T19:48:49.322Z,10.53
2019-04-29T19:51:22.915Z,13.93
2019-04-29T19:53:51.651Z,13.20
2019-04-29T19:56:24.263Z,12.33
2019-04-29T19:58:57.330Z,12.80
2019-04-29T20:01:30.834Z,13.80
2019-04-29T20:04:17.881Z,15.93
2019-04-29T20:06:44.902Z,16.90
2019-04-29T20:09:21.682Z,18.50
2019-04-29T20:11:49.327Z,20.73
2019-04-29T20:14:26.221Z,17.47
2019-04-29T20:17:13.857Z,26.53
2019-04-29T20:19:55.475Z,22.77
2019-04-29T20:22:18.372Z,25.10
2019-04-29T20:24:50.617Z,27.67
2019-04-29T20:27:20.684Z,25.90
2019-04-29T20:29:51.597Z,28.90
2019-04-29T20:32:26.707Z,28.17
2019-04-29T20:34:57.466Z,28.57
2019-04-29T20:37:26.199Z,29.50
2019-04-29T20:40:00.556Z,26.73
2019-04-29T20:42:28.706Z,26.70
2019-04-29T20:44:59.215Z,32.53
2019-04-29T20:47:37.396Z,27.50
2019-04-29T20:50:01.115Z,21.87
2019-04-29T20:52:52.204Z,26.93
2019-04-29T20:55:22.625Z,29.47
2019-04-29T20:57:54.099Z,27.57
2019-04-29T21:00:26.989Z,31.00
2019-04-29T21:02:57.031Z,27.93
2019-04-29T21:05:27.862Z,26.97
2019-04-29T21:08:03.318Z,27.37
2019-04-29T21:10:30.591Z,37.73
2019-04-29T21:13:20.262Z,39.20
2019-04-29T21:15:55.687Z,34.40
2019-04-29T21:18:27.101Z,34.07
2019-04-29T21:20:59.690Z,31.80
2019-04-29T21:23:31.527Z,33.73
2019-04-29T21:26:05.384Z,31.37
2019-04-29T21:28:38.099Z,30.90
2019-04-29T21:31:05.277Z,31.10
2019-04-29T21:33:35.717Z,31.10
2019-04-29T21:36:19.810Z,27.20
2019-04-29T21:39:01.943Z,33.43
2019-04-29T21:41:50.688Z,36.53
2019-04-29T21:44:23.673Z,36.00
2019-04-29T21:46:52.982Z,37.20
2019-04-29T21:49:23.391Z,38.00
2019-04-29T21:51:55.462Z,39.73
2019-04-29T21:54:25.928Z,40.90
2019-04-29T21:56:56.282Z,41.03
2019-04-29T21:59:26.643Z,39.57
2019-04-29T22:01:59.144Z,40.43
2019-04-29T22:04:32.837Z,42.27
2019-04-29T22:07:04.866Z,42.97
2019-04-29T22:09:36.158Z,41.50
2019-04-29T22:12:05.563Z,42.53
2019-04-29T22:14:36.102Z,44.48
2019-04-29T22:17:06.436Z,39.87
2019-04-29T22:19:36.863Z,44.63
2019-04-29T22:22:07.406Z,47.67
2019-04-29T22:24:37.789Z,41.28
2019-04-29T22:27:08.397Z,43.33
2019-04-29T22:29:39.336Z,42.23
2019-04-29T22:32:14.420Z,39.47
2019-04-29T22:34:42.232Z,41.70
2019-04-29T22:37:12.607Z,43.50
2019-04-29T22:39:42.961Z,45.33
2019-04-29T22:42:32.236Z,47.27
2019-04-29T22:45:02.869Z,42.23
2019-04-29T22:47:33.221Z,49.17
2019-04-29T22:50:04.569Z,48.63
2019-04-29T22:52:36.719Z,44.63
2019-04-29T22:55:07.535Z,46.37
2019-04-29T22:57:37.941Z,48.53
2019-04-29T23:00:08.045Z,48.50
2019-04-29T23:02:38.304Z,51.33
2019-04-29T23:05:08.750Z,52.43
2019-04-29T23:07:39.120Z,56.17
2019-04-29T23:10:09.697Z,50.97
2019-04-29T23:12:40.153Z,55.67
2019-04-29T23:15:09.910Z,52.25
2019-04-29T23:17:42.607Z,58.37
2019-04-29T23:20:29.011Z,58.97
2019-04-29T23:23:05.288Z,54.13
2019-04-29T23:25:40.594Z,57.37
2019-04-29T23:28:10.963Z,55.53
2019-04-29T23:30:41.287Z,51.93
2019-04-29T23:33:11.630Z,51.63
2019-04-29T23:35:41.976Z,52.40
2019-04-29T23:38:12.314Z,59.90
2019-04-29T23:40:42.821Z,53.13
2019-04-29T23:43:13.157Z,53.37
2019-04-29T23:45:44.984Z,60.23
2019-04-29T23:48:15.353Z,52.47
2019-04-29T23:50:45.465Z,49.57
2019-04-29T23:53:15.856Z,56.43
2019-04-29T23:55:46.229Z,61.93
2019-04-29T23:58:38.700Z,51.80
